sensor_id;sensor_type;location;lat;lon;timestamp;P1;durP1;ratioP1;P2;durP2;ratioP2
63536;SDS011;49686;51.880;5.632;2023-06-19T00:00:13;10.55;;;6.90;;
63536;SDS011;49686;51.880;5.632;2023-06-19T00:02:44;7.75;;;6.93;;
63536;SDS011;49686;51.880;5.632;2023-06-19T00:05:13;10.45;;;7.20;;
63536;SDS011;49686;51.880;5.632;2023-06-19T00:07:40;9.38;;;7.78;;
63536;SDS011;49686;51.880;5.632;2023-06-19T00:10:09;10.73;;;6.85;;
63536;SDS011;49686;51.880;5.632;2023-06-19T00:12:45;7.47;;;6.35;;
63536;SDS011;49686;51.880;5.632;2023-06-19T00:15:12;8.73;;;6.35;;
63536;SDS011;49686;51.880;5.632;2023-06-19T00:17:39;8.02;;;6.28;;
63536;SDS011;49686;51.880;5.632;2023-06-19T00:20:09;6.70;;;5.97;;
63536;SDS011;49686;51.880;5.632;2023-06-19T00:22:36;8.23;;;5.90;;
63536;SDS011;49686;51.880;5.632;2023-06-19T00:25:03;7.13;;;5.65;;
63536;SDS011;49686;51.880;5.632;2023-06-19T00:27:31;7.35;;;5.10;;
63536;SDS011;49686;51.880;5.632;2023-06-19T00:30:01;7.07;;;5.63;;
63536;SDS011;49686;51.880;5.632;2023-06-19T00:32:28;8.52;;;5.80;;
63536;SDS011;49686;51.880;5.632;2023-06-19T00:34:55;8.23;;;6.18;;
63536;SDS011;49686;51.880;5.632;2023-06-19T00:37:22;7.13;;;5.30;;
63536;SDS011;49686;51.880;5.632;2023-06-19T00:39:49;9.35;;;5.15;;
63536;SDS011;49686;51.880;5.632;2023-06-19T00:42:16;7.97;;;5.95;;
63536;SDS011;49686;51.880;5.632;2023-06-19T00:44:44;7.53;;;5.22;;
63536;SDS011;49686;51.880;5.632;2023-06-19T00:47:12;5.82;;;5.22;;
63536;SDS011;49686;51.880;5.632;2023-06-19T00:49:39;8.18;;;5.50;;
63536;SDS011;49686;51.880;5.632;2023-06-19T00:52:07;7.88;;;5.50;;
63536;SDS011;49686;51.880;5.632;2023-06-19T00:54:36;8.65;;;6.28;;
63536;SDS011;49686;51.880;5.632;2023-06-19T00:57:03;6.32;;;4.93;;
63536;SDS011;49686;51.880;5.632;2023-06-19T00:59:30;8.45;;;5.57;;
63536;SDS011;49686;51.880;5.632;2023-06-19T01:02:01;7.45;;;4.97;;
63536;SDS011;49686;51.880;5.632;2023-06-19T01:04:28;4.65;;;4.00;;
63536;SDS011;49686;51.880;5.632;2023-06-19T01:06:56;6.15;;;4.40;;
63536;SDS011;49686;51.880;5.632;2023-06-19T01:09:29;7.15;;;4.60;;
63536;SDS011;49686;51.880;5.632;2023-06-19T01:12:03;5.63;;;4.28;;
63536;SDS011;49686;51.880;5.632;2023-06-19T01:14:42;5.90;;;3.88;;
63536;SDS011;49686;51.880;5.632;2023-06-19T01:17:15;5.03;;;3.75;;
63536;SDS011;49686;51.880;5.632;2023-06-19T01:19:42;6.05;;;3.90;;
63536;SDS011;49686;51.880;5.632;2023-06-19T01:22:23;5.15;;;3.85;;
63536;SDS011;49686;51.880;5.632;2023-06-19T01:24:50;5.45;;;3.72;;
63536;SDS011;49686;51.880;5.632;2023-06-19T01:27:17;4.68;;;3.83;;
63536;SDS011;49686;51.880;5.632;2023-06-19T01:29:44;4.97;;;3.60;;
63536;SDS011;49686;51.880;5.632;2023-06-19T01:32:15;4.63;;;3.50;;
63536;SDS011;49686;51.880;5.632;2023-06-19T01:34:49;6.40;;;3.92;;
63536;SDS011;49686;51.880;5.632;2023-06-19T01:37:23;4.57;;;3.63;;
63536;SDS011;49686;51.880;5.632;2023-06-19T01:39:51;4.95;;;3.70;;
63536;SDS011;49686;51.880;5.632;2023-06-19T01:42:19;5.07;;;3.95;;
63536;SDS011;49686;51.880;5.632;2023-06-19T01:44:47;3.75;;;3.20;;
63536;SDS011;49686;51.880;5.632;2023-06-19T01:49:42;4.05;;;3.17;;
63536;SDS011;49686;51.880;5.632;2023-06-19T01:52:09;4.13;;;3.20;;
63536;SDS011;49686;51.880;5.632;2023-06-19T01:54:37;5.03;;;3.72;;
63536;SDS011;49686;51.880;5.632;2023-06-19T01:57:04;9.25;;;3.55;;
63536;SDS011;49686;51.880;5.632;2023-06-19T01:59:32;7.15;;;3.50;;
63536;SDS011;49686;51.880;5.632;2023-06-19T02:01:59;5.75;;;3.95;;
63536;SDS011;49686;51.880;5.632;2023-06-19T02:04:25;5.25;;;3.42;;
63536;SDS011;49686;51.880;5.632;2023-06-19T02:06:52;6.82;;;3.42;;
63536;SDS011;49686;51.880;5.632;2023-06-19T02:09:22;5.35;;;3.35;;
63536;SDS011;49686;51.880;5.632;2023-06-19T02:11:50;3.70;;;3.00;;
63536;SDS011;49686;51.880;5.632;2023-06-19T02:14:17;3.85;;;2.95;;
63536;SDS011;49686;51.880;5.632;2023-06-19T02:16:44;3.78;;;2.70;;
63536;SDS011;49686;51.880;5.632;2023-06-19T02:19:14;3.03;;;2.45;;
63536;SDS011;49686;51.880;5.632;2023-06-19T02:21:41;3.08;;;2.30;;
63536;SDS011;49686;51.880;5.632;2023-06-19T02:24:10;3.03;;;2.40;;
63536;SDS011;49686;51.880;5.632;2023-06-19T02:26:38;3.67;;;2.67;;
63536;SDS011;49686;51.880;5.632;2023-06-19T02:29:12;4.13;;;2.30;;
63536;SDS011;49686;51.880;5.632;2023-06-19T02:31:41;3.60;;;2.53;;
63536;SDS011;49686;51.880;5.632;2023-06-19T02:34:08;3.13;;;2.67;;
63536;SDS011;49686;51.880;5.632;2023-06-19T02:36:35;4.03;;;2.55;;
63536;SDS011;49686;51.880;5.632;2023-06-19T02:39:04;2.10;;;1.88;;
63536;SDS011;49686;51.880;5.632;2023-06-19T02:41:31;3.63;;;2.25;;
63536;SDS011;49686;51.880;5.632;2023-06-19T02:43:58;2.97;;;2.10;;
63536;SDS011;49686;51.880;5.632;2023-06-19T02:46:26;3.63;;;2.60;;
63536;SDS011;49686;51.880;5.632;2023-06-19T02:48:53;2.70;;;2.15;;
63536;SDS011;49686;51.880;5.632;2023-06-19T02:51:20;3.45;;;2.30;;
63536;SDS011;49686;51.880;5.632;2023-06-19T02:53:46;3.13;;;2.35;;
63536;SDS011;49686;51.880;5.632;2023-06-19T02:56:14;3.17;;;2.53;;
63536;SDS011;49686;51.880;5.632;2023-06-19T02:58:44;2.83;;;2.15;;
63536;SDS011;49686;51.880;5.632;2023-06-19T03:01:11;2.83;;;2.22;;
63536;SDS011;49686;51.880;5.632;2023-06-19T03:03:39;4.28;;;2.70;;
63536;SDS011;49686;51.880;5.632;2023-06-19T03:06:09;5.03;;;2.83;;
63536;SDS011;49686;51.880;5.632;2023-06-19T03:08:36;2.45;;;2.13;;
63536;SDS011;49686;51.880;5.632;2023-06-19T03:11:06;4.63;;;2.40;;
63536;SDS011;49686;51.880;5.632;2023-06-19T03:13:43;3.45;;;2.50;;
63536;SDS011;49686;51.880;5.632;2023-06-19T03:16:11;3.22;;;2.40;;
63536;SDS011;49686;51.880;5.632;2023-06-19T03:18:40;4.35;;;2.50;;
63536;SDS011;49686;51.880;5.632;2023-06-19T03:21:07;3.17;;;2.22;;
63536;SDS011;49686;51.880;5.632;2023-06-19T03:23:35;3.43;;;2.30;;
63536;SDS011;49686;51.880;5.632;2023-06-19T03:26:02;2.55;;;2.13;;
63536;SDS011;49686;51.880;5.632;2023-06-19T03:28:29;3.78;;;2.30;;
63536;SDS011;49686;51.880;5.632;2023-06-19T03:30:55;2.60;;;2.22;;
63536;SDS011;49686;51.880;5.632;2023-06-19T03:33:22;3.85;;;2.60;;
63536;SDS011;49686;51.880;5.632;2023-06-19T03:35:53;2.90;;;2.30;;
63536;SDS011;49686;51.880;5.632;2023-06-19T03:38:21;2.78;;;2.38;;
63536;SDS011;49686;51.880;5.632;2023-06-19T03:40:47;4.57;;;2.30;;
63536;SDS011;49686;51.880;5.632;2023-06-19T03:43:14;3.35;;;2.60;;
63536;SDS011;49686;51.880;5.632;2023-06-19T03:45:41;4.40;;;2.38;;
63536;SDS011;49686;51.880;5.632;2023-06-19T03:48:08;3.75;;;2.70;;
63536;SDS011;49686;51.880;5.632;2023-06-19T03:50:35;2.50;;;2.20;;
63536;SDS011;49686;51.880;5.632;2023-06-19T03:53:04;3.30;;;2.40;;
63536;SDS011;49686;51.880;5.632;2023-06-19T03:55:30;3.85;;;3.00;;
63536;SDS011;49686;51.880;5.632;2023-06-19T03:58:00;5.57;;;3.38;;
63536;SDS011;49686;51.880;5.632;2023-06-19T04:00:27;3.30;;;2.70;;
63536;SDS011;49686;51.880;5.632;2023-06-19T04:02:54;3.88;;;2.38;;
63536;SDS011;49686;51.880;5.632;2023-06-19T04:05:21;4.82;;;2.50;;
63536;SDS011;49686;51.880;5.632;2023-06-19T04:07:50;3.05;;;2.42;;
63536;SDS011;49686;51.880;5.632;2023-06-19T04:10:18;4.20;;;3.30;;
63536;SDS011;49686;51.880;5.632;2023-06-19T04:12:45;3.70;;;3.05;;
63536;SDS011;49686;51.880;5.632;2023-06-19T04:15:12;3.40;;;2.63;;
63536;SDS011;49686;51.880;5.632;2023-06-19T04:17:39;5.30;;;3.10;;
63536;SDS011;49686;51.880;5.632;2023-06-19T04:20:06;3.53;;;2.88;;
63536;SDS011;49686;51.880;5.632;2023-06-19T04:22:37;4.35;;;2.80;;
63536;SDS011;49686;51.880;5.632;2023-06-19T04:25:04;5.45;;;2.95;;
63536;SDS011;49686;51.880;5.632;2023-06-19T04:27:42;6.05;;;3.20;;
63536;SDS011;49686;51.880;5.632;2023-06-19T04:30:10;4.97;;;3.28;;
63536;SDS011;49686;51.880;5.632;2023-06-19T04:32:38;4.10;;;3.33;;
63536;SDS011;49686;51.880;5.632;2023-06-19T04:35:05;3.60;;;2.75;;
63536;SDS011;49686;51.880;5.632;2023-06-19T04:37:32;4.67;;;3.40;;
63536;SDS011;49686;51.880;5.632;2023-06-19T04:40:00;5.20;;;3.20;;
63536;SDS011;49686;51.880;5.632;2023-06-19T04:42:27;4.38;;;3.28;;
63536;SDS011;49686;51.880;5.632;2023-06-19T04:44:55;4.22;;;3.60;;
63536;SDS011;49686;51.880;5.632;2023-06-19T04:47:22;5.15;;;3.50;;
63536;SDS011;49686;51.880;5.632;2023-06-19T04:50:01;4.75;;;3.67;;
63536;SDS011;49686;51.880;5.632;2023-06-19T04:52:35;5.82;;;3.55;;
63536;SDS011;49686;51.880;5.632;2023-06-19T04:55:02;4.47;;;3.47;;
63536;SDS011;49686;51.880;5.632;2023-06-19T04:57:30;5.50;;;4.20;;
63536;SDS011;49686;51.880;5.632;2023-06-19T04:59:58;4.95;;;3.40;;
63536;SDS011;49686;51.880;5.632;2023-06-19T05:02:27;4.53;;;3.90;;
63536;SDS011;49686;51.880;5.632;2023-06-19T05:04:54;5.47;;;4.03;;
63536;SDS011;49686;51.880;5.632;2023-06-19T05:07:21;5.30;;;4.13;;
63536;SDS011;49686;51.880;5.632;2023-06-19T05:09:48;5.20;;;3.78;;
63536;SDS011;49686;51.880;5.632;2023-06-19T05:12:15;5.30;;;4.38;;
63536;SDS011;49686;51.880;5.632;2023-06-19T05:14:44;5.25;;;4.47;;
63536;SDS011;49686;51.880;5.632;2023-06-19T05:17:12;6.13;;;4.47;;
63536;SDS011;49686;51.880;5.632;2023-06-19T05:19:39;6.32;;;4.68;;
63536;SDS011;49686;51.880;5.632;2023-06-19T05:22:06;6.60;;;3.80;;
63536;SDS011;49686;51.880;5.632;2023-06-19T05:24:33;8.85;;;4.78;;
63536;SDS011;49686;51.880;5.632;2023-06-19T05:27:00;7.47;;;4.68;;
63536;SDS011;49686;51.880;5.632;2023-06-19T05:29:27;7.88;;;4.80;;
63536;SDS011;49686;51.880;5.632;2023-06-19T05:32:08;6.05;;;5.45;;
63536;SDS011;49686;51.880;5.632;2023-06-19T05:34:38;7.30;;;5.32;;
63536;SDS011;49686;51.880;5.632;2023-06-19T05:37:05;7.40;;;5.75;;
63536;SDS011;49686;51.880;5.632;2023-06-19T05:39:34;6.97;;;5.07;;
63536;SDS011;49686;51.880;5.632;2023-06-19T05:42:01;7.55;;;5.88;;
63536;SDS011;49686;51.880;5.632;2023-06-19T05:44:27;8.20;;;6.05;;
63536;SDS011;49686;51.880;5.632;2023-06-19T05:46:54;8.82;;;6.72;;
63536;SDS011;49686;51.880;5.632;2023-06-19T05:49:25;9.93;;;7.10;;
63536;SDS011;49686;51.880;5.632;2023-06-19T05:51:53;9.40;;;6.47;;
63536;SDS011;49686;51.880;5.632;2023-06-19T05:54:23;7.88;;;6.55;;
63536;SDS011;49686;51.880;5.632;2023-06-19T05:56:50;8.95;;;7.22;;
63536;SDS011;49686;51.880;5.632;2023-06-19T05:59:21;10.85;;;8.00;;
63536;SDS011;49686;51.880;5.632;2023-06-19T06:01:47;10.77;;;8.25;;
63536;SDS011;49686;51.880;5.632;2023-06-19T06:04:14;10.80;;;8.50;;
63536;SDS011;49686;51.880;5.632;2023-06-19T06:06:44;11.02;;;8.50;;
63536;SDS011;49686;51.880;5.632;2023-06-19T06:09:13;10.90;;;8.55;;
63536;SDS011;49686;51.880;5.632;2023-06-19T06:11:42;9.13;;;8.20;;
63536;SDS011;49686;51.880;5.632;2023-06-19T06:14:09;9.88;;;7.40;;
63536;SDS011;49686;51.880;5.632;2023-06-19T06:16:38;9.65;;;6.10;;
63536;SDS011;49686;51.880;5.632;2023-06-19T06:19:06;8.25;;;7.22;;
63536;SDS011;49686;51.880;5.632;2023-06-19T06:21:33;8.30;;;7.15;;
63536;SDS011;49686;51.880;5.632;2023-06-19T06:24:05;10.10;;;7.43;;
63536;SDS011;49686;51.880;5.632;2023-06-19T06:26:45;9.35;;;7.80;;
63536;SDS011;49686;51.880;5.632;2023-06-19T06:29:11;7.70;;;6.90;;
63536;SDS011;49686;51.880;5.632;2023-06-19T06:31:45;9.75;;;7.20;;
63536;SDS011;49686;51.880;5.632;2023-06-19T06:34:12;8.73;;;6.85;;
63536;SDS011;49686;51.880;5.632;2023-06-19T06:36:42;8.93;;;6.55;;
63536;SDS011;49686;51.880;5.632;2023-06-19T06:39:26;6.95;;;5.70;;
63536;SDS011;49686;51.880;5.632;2023-06-19T06:41:55;8.02;;;5.88;;
63536;SDS011;49686;51.880;5.632;2023-06-19T06:44:22;5.95;;;4.88;;
63536;SDS011;49686;51.880;5.632;2023-06-19T06:46:49;7.75;;;5.13;;
63536;SDS011;49686;51.880;5.632;2023-06-19T06:49:20;7.03;;;4.88;;
63536;SDS011;49686;51.880;5.632;2023-06-19T06:51:50;6.55;;;4.72;;
63536;SDS011;49686;51.880;5.632;2023-06-19T06:54:16;8.10;;;4.93;;
63536;SDS011;49686;51.880;5.632;2023-06-19T06:56:48;5.50;;;4.90;;
63536;SDS011;49686;51.880;5.632;2023-06-19T06:59:16;6.28;;;4.85;;
63536;SDS011;49686;51.880;5.632;2023-06-19T07:01:43;7.43;;;4.40;;
63536;SDS011;49686;51.880;5.632;2023-06-19T07:04:09;8.75;;;4.97;;
63536;SDS011;49686;51.880;5.632;2023-06-19T07:06:37;5.80;;;4.43;;
63536;SDS011;49686;51.880;5.632;2023-06-19T07:09:05;6.95;;;5.32;;
63536;SDS011;49686;51.880;5.632;2023-06-19T07:11:32;5.93;;;5.30;;
63536;SDS011;49686;51.880;5.632;2023-06-19T07:13:59;8.82;;;7.93;;
63536;SDS011;49686;51.880;5.632;2023-06-19T07:16:30;9.05;;;8.18;;
63536;SDS011;49686;51.880;5.632;2023-06-19T07:18:57;10.35;;;8.23;;
63536;SDS011;49686;51.880;5.632;2023-06-19T07:21:24;9.50;;;7.57;;
63536;SDS011;49686;51.880;5.632;2023-06-19T07:23:55;9.90;;;8.63;;
63536;SDS011;49686;51.880;5.632;2023-06-19T07:26:23;9.05;;;8.07;;
63536;SDS011;49686;51.880;5.632;2023-06-19T07:28:50;8.18;;;7.20;;
63536;SDS011;49686;51.880;5.632;2023-06-19T07:31:22;10.00;;;8.57;;
63536;SDS011;49686;51.880;5.632;2023-06-19T07:33:51;11.48;;;9.00;;
63536;SDS011;49686;51.880;5.632;2023-06-19T07:36:18;10.32;;;8.80;;
63536;SDS011;49686;51.880;5.632;2023-06-19T07:38:45;10.27;;;7.93;;
63536;SDS011;49686;51.880;5.632;2023-06-19T07:41:18;9.82;;;8.30;;
63536;SDS011;49686;51.880;5.632;2023-06-19T07:43:45;9.40;;;7.43;;
63536;SDS011;49686;51.880;5.632;2023-06-19T07:46:12;10.32;;;9.23;;
63536;SDS011;49686;51.880;5.632;2023-06-19T07:48:39;8.40;;;7.30;;
63536;SDS011;49686;51.880;5.632;2023-06-19T07:51:07;9.23;;;7.30;;
63536;SDS011;49686;51.880;5.632;2023-06-19T07:53:34;11.43;;;8.60;;
63536;SDS011;49686;51.880;5.632;2023-06-19T07:56:03;10.82;;;8.90;;
63536;SDS011;49686;51.880;5.632;2023-06-19T07:58:33;11.23;;;8.73;;
63536;SDS011;49686;51.880;5.632;2023-06-19T08:00:59;10.52;;;7.93;;
63536;SDS011;49686;51.880;5.632;2023-06-19T08:03:26;11.40;;;9.63;;
63536;SDS011;49686;51.880;5.632;2023-06-19T08:05:53;12.13;;;9.88;;
63536;SDS011;49686;51.880;5.632;2023-06-19T08:08:22;11.73;;;9.40;;
63536;SDS011;49686;51.880;5.632;2023-06-19T08:10:49;11.70;;;8.63;;
63536;SDS011;49686;51.880;5.632;2023-06-19T08:13:16;11.48;;;9.15;;
63536;SDS011;49686;51.880;5.632;2023-06-19T08:15:46;10.98;;;8.77;;
63536;SDS011;49686;51.880;5.632;2023-06-19T08:18:12;8.95;;;8.02;;
63536;SDS011;49686;51.880;5.632;2023-06-19T08:20:39;10.88;;;9.00;;
63536;SDS011;49686;51.880;5.632;2023-06-19T08:23:06;10.48;;;8.65;;
63536;SDS011;49686;51.880;5.632;2023-06-19T08:25:35;11.70;;;9.55;;
63536;SDS011;49686;51.880;5.632;2023-06-19T08:28:02;10.60;;;8.98;;
63536;SDS011;49686;51.880;5.632;2023-06-19T08:30:28;8.75;;;7.47;;
63536;SDS011;49686;51.880;5.632;2023-06-19T08:32:59;11.75;;;5.90;;
63536;SDS011;49686;51.880;5.632;2023-06-19T08:35:26;12.95;;;9.00;;
63536;SDS011;49686;51.880;5.632;2023-06-19T08:37:53;10.93;;;8.35;;
63536;SDS011;49686;51.880;5.632;2023-06-19T08:40:20;13.20;;;9.80;;
63536;SDS011;49686;51.880;5.632;2023-06-19T08:42:49;11.05;;;9.93;;
63536;SDS011;49686;51.880;5.632;2023-06-19T08:45:15;11.85;;;9.15;;
63536;SDS011;49686;51.880;5.632;2023-06-19T08:47:42;9.23;;;8.25;;
63536;SDS011;49686;51.880;5.632;2023-06-19T08:50:09;15.63;;;10.20;;
63536;SDS011;49686;51.880;5.632;2023-06-19T08:52:36;10.50;;;8.48;;
63536;SDS011;49686;51.880;5.632;2023-06-19T08:55:03;9.30;;;8.40;;
63536;SDS011;49686;51.880;5.632;2023-06-19T08:57:34;12.27;;;8.85;;
63536;SDS011;49686;51.880;5.632;2023-06-19T09:00:05;10.93;;;9.77;;
63536;SDS011;49686;51.880;5.632;2023-06-19T09:02:41;9.82;;;8.65;;
63536;SDS011;49686;51.880;5.632;2023-06-19T09:05:19;10.05;;;8.98;;
63536;SDS011;49686;51.880;5.632;2023-06-19T09:07:54;10.95;;;9.68;;
63536;SDS011;49686;51.880;5.632;2023-06-19T09:10:22;12.80;;;10.77;;
63536;SDS011;49686;51.880;5.632;2023-06-19T09:12:56;12.88;;;10.85;;
63536;SDS011;49686;51.880;5.632;2023-06-19T09:15:29;11.55;;;9.05;;
63536;SDS011;49686;51.880;5.632;2023-06-19T09:18:04;8.95;;;8.05;;
63536;SDS011;49686;51.880;5.632;2023-06-19T09:20:32;10.90;;;9.48;;
63536;SDS011;49686;51.880;5.632;2023-06-19T09:23:00;16.80;;;10.82;;
63536;SDS011;49686;51.880;5.632;2023-06-19T09:25:27;13.32;;;10.23;;
63536;SDS011;49686;51.880;5.632;2023-06-19T09:27:54;11.77;;;10.57;;
63536;SDS011;49686;51.880;5.632;2023-06-19T09:30:21;11.18;;;10.00;;
63536;SDS011;49686;51.880;5.632;2023-06-19T09:32:52;9.77;;;8.38;;
63536;SDS011;49686;51.880;5.632;2023-06-19T09:35:19;6.40;;;5.63;;
63536;SDS011;49686;51.880;5.632;2023-06-19T09:37:46;11.60;;;10.40;;
63536;SDS011;49686;51.880;5.632;2023-06-19T09:42:42;12.27;;;10.93;;
63536;SDS011;49686;51.880;5.632;2023-06-19T09:45:12;11.48;;;10.02;;
63536;SDS011;49686;51.880;5.632;2023-06-19T09:47:46;11.13;;;9.38;;
63536;SDS011;49686;51.880;5.632;2023-06-19T09:50:17;12.55;;;11.05;;
63536;SDS011;49686;51.880;5.632;2023-06-19T09:52:44;9.45;;;8.30;;
63536;SDS011;49686;51.880;5.632;2023-06-19T09:55:12;15.90;;;12.68;;
63536;SDS011;49686;51.880;5.632;2023-06-19T09:57:40;11.48;;;9.15;;
63536;SDS011;49686;51.880;5.632;2023-06-19T10:02:36;13.23;;;11.70;;
63536;SDS011;49686;51.880;5.632;2023-06-19T10:05:03;15.45;;;13.90;;
63536;SDS011;49686;51.880;5.632;2023-06-19T10:07:34;13.65;;;12.10;;
63536;SDS011;49686;51.880;5.632;2023-06-19T10:10:02;14.55;;;13.10;;
63536;SDS011;49686;51.880;5.632;2023-06-19T10:12:34;15.27;;;12.50;;
63536;SDS011;49686;51.880;5.632;2023-06-19T10:15:12;11.80;;;9.95;;
63536;SDS011;49686;51.880;5.632;2023-06-19T10:17:46;14.27;;;12.88;;
63536;SDS011;49686;51.880;5.632;2023-06-19T10:20:20;15.63;;;13.52;;
63536;SDS011;49686;51.880;5.632;2023-06-19T10:22:52;12.48;;;10.68;;
63536;SDS011;49686;51.880;5.632;2023-06-19T10:25:27;13.77;;;12.38;;
63536;SDS011;49686;51.880;5.632;2023-06-19T10:27:58;13.90;;;12.48;;
63536;SDS011;49686;51.880;5.632;2023-06-19T10:30:25;14.85;;;12.82;;
63536;SDS011;49686;51.880;5.632;2023-06-19T10:32:55;16.10;;;13.48;;
63536;SDS011;49686;51.880;5.632;2023-06-19T10:35:22;12.07;;;10.93;;
63536;SDS011;49686;51.880;5.632;2023-06-19T10:37:55;12.48;;;11.20;;
63536;SDS011;49686;51.880;5.632;2023-06-19T10:40:22;10.55;;;9.00;;
63536;SDS011;49686;51.880;5.632;2023-06-19T10:42:49;14.60;;;13.15;;
63536;SDS011;49686;51.880;5.632;2023-06-19T10:45:19;14.57;;;12.18;;
63536;SDS011;49686;51.880;5.632;2023-06-19T10:47:48;14.65;;;13.05;;
63536;SDS011;49686;51.880;5.632;2023-06-19T10:50:17;13.68;;;12.30;;
63536;SDS011;49686;51.880;5.632;2023-06-19T10:52:44;14.20;;;11.98;;
63536;SDS011;49686;51.880;5.632;2023-06-19T10:55:12;14.33;;;12.77;;
63536;SDS011;49686;51.880;5.632;2023-06-19T10:57:40;14.13;;;12.63;;
63536;SDS011;49686;51.880;5.632;2023-06-19T11:00:10;16.63;;;14.00;;
63536;SDS011;49686;51.880;5.632;2023-06-19T11:02:38;19.55;;;13.82;;
63536;SDS011;49686;51.880;5.632;2023-06-19T11:05:10;12.52;;;11.25;;
63536;SDS011;49686;51.880;5.632;2023-06-19T11:07:37;16.00;;;12.60;;
63536;SDS011;49686;51.880;5.632;2023-06-19T11:10:07;12.75;;;10.50;;
63536;SDS011;49686;51.880;5.632;2023-06-19T11:12:46;12.52;;;11.23;;
63536;SDS011;49686;51.880;5.632;2023-06-19T11:15:13;12.50;;;11.07;;
63536;SDS011;49686;51.880;5.632;2023-06-19T11:17:40;13.57;;;12.02;;
63536;SDS011;49686;51.880;5.632;2023-06-19T11:20:09;14.48;;;12.48;;
63536;SDS011;49686;51.880;5.632;2023-06-19T11:22:40;13.40;;;12.00;;
63536;SDS011;49686;51.880;5.632;2023-06-19T11:25:08;12.60;;;10.13;;
63536;SDS011;49686;51.880;5.632;2023-06-19T11:30:09;11.75;;;10.45;;
63536;SDS011;49686;51.880;5.632;2023-06-19T11:32:37;13.23;;;10.98;;
63536;SDS011;49686;51.880;5.632;2023-06-19T11:35:05;13.50;;;12.10;;
63536;SDS011;49686;51.880;5.632;2023-06-19T11:37:34;12.48;;;10.25;;
63536;SDS011;49686;51.880;5.632;2023-06-19T11:40:03;12.95;;;11.48;;
63536;SDS011;49686;51.880;5.632;2023-06-19T11:42:30;13.80;;;11.90;;
63536;SDS011;49686;51.880;5.632;2023-06-19T11:44:59;11.25;;;8.82;;
63536;SDS011;49686;51.880;5.632;2023-06-19T11:47:29;14.70;;;10.77;;
63536;SDS011;49686;51.880;5.632;2023-06-19T11:49:56;15.40;;;11.60;;
63536;SDS011;49686;51.880;5.632;2023-06-19T11:52:23;10.52;;;8.98;;
63536;SDS011;49686;51.880;5.632;2023-06-19T11:54:55;12.68;;;11.32;;
63536;SDS011;49686;51.880;5.632;2023-06-19T11:57:26;13.30;;;11.88;;
63536;SDS011;49686;51.880;5.632;2023-06-19T11:59:53;14.32;;;11.93;;
63536;SDS011;49686;51.880;5.632;2023-06-19T12:02:21;14.13;;;11.23;;
63536;SDS011;49686;51.880;5.632;2023-06-19T12:04:49;12.10;;;10.18;;
63536;SDS011;49686;51.880;5.632;2023-06-19T12:07:16;10.65;;;9.18;;
63536;SDS011;49686;51.880;5.632;2023-06-19T12:09:43;11.30;;;9.43;;
63536;SDS011;49686;51.880;5.632;2023-06-19T12:12:10;10.75;;;9.50;;
63536;SDS011;49686;51.880;5.632;2023-06-19T12:14:37;12.02;;;10.48;;
63536;SDS011;49686;51.880;5.632;2023-06-19T12:17:04;12.88;;;10.90;;
63536;SDS011;49686;51.880;5.632;2023-06-19T12:19:34;12.82;;;11.52;;
63536;SDS011;49686;51.880;5.632;2023-06-19T12:22:05;11.40;;;10.15;;
63536;SDS011;49686;51.880;5.632;2023-06-19T12:24:32;11.63;;;10.25;;
63536;SDS011;49686;51.880;5.632;2023-06-19T12:26:59;11.98;;;10.77;;
63536;SDS011;49686;51.880;5.632;2023-06-19T12:29:26;13.80;;;10.57;;
63536;SDS011;49686;51.880;5.632;2023-06-19T12:31:58;9.68;;;8.65;;
63536;SDS011;49686;51.880;5.632;2023-06-19T12:34:26;8.77;;;7.88;;
63536;SDS011;49686;51.880;5.632;2023-06-19T12:36:59;9.48;;;7.70;;
63536;SDS011;49686;51.880;5.632;2023-06-19T12:39:30;9.45;;;8.45;;
63536;SDS011;49686;51.880;5.632;2023-06-19T12:42:03;10.60;;;9.57;;
63536;SDS011;49686;51.880;5.632;2023-06-19T12:44:30;10.53;;;9.50;;
63536;SDS011;49686;51.880;5.632;2023-06-19T12:46:57;11.85;;;10.60;;
63536;SDS011;49686;51.880;5.632;2023-06-19T12:49:24;12.77;;;9.68;;
63536;SDS011;49686;51.880;5.632;2023-06-19T12:51:51;14.07;;;10.38;;
63536;SDS011;49686;51.880;5.632;2023-06-19T12:54:18;14.05;;;10.75;;
63536;SDS011;49686;51.880;5.632;2023-06-19T12:56:48;10.95;;;8.95;;
63536;SDS011;49686;51.880;5.632;2023-06-19T12:59:15;9.95;;;8.95;;
63536;SDS011;49686;51.880;5.632;2023-06-19T13:01:42;11.07;;;9.18;;
63536;SDS011;49686;51.880;5.632;2023-06-19T13:04:11;10.43;;;7.93;;
63536;SDS011;49686;51.880;5.632;2023-06-19T13:06:38;11.40;;;10.05;;
63536;SDS011;49686;51.880;5.632;2023-06-19T13:09:06;11.82;;;9.95;;
63536;SDS011;49686;51.880;5.632;2023-06-19T13:11:33;11.88;;;9.70;;
63536;SDS011;49686;51.880;5.632;2023-06-19T13:14:01;11.68;;;8.18;;
63536;SDS011;49686;51.880;5.632;2023-06-19T13:16:28;10.40;;;8.93;;
63536;SDS011;49686;51.880;5.632;2023-06-19T13:19:06;10.65;;;7.50;;
63536;SDS011;49686;51.880;5.632;2023-06-19T13:21:33;9.32;;;7.65;;
63536;SDS011;49686;51.880;5.632;2023-06-19T13:24:00;11.85;;;8.65;;
63536;SDS011;49686;51.880;5.632;2023-06-19T13:26:27;10.45;;;7.88;;
63536;SDS011;49686;51.880;5.632;2023-06-19T13:28:54;12.05;;;8.98;;
63536;SDS011;49686;51.880;5.632;2023-06-19T13:31:22;12.90;;;9.20;;
63536;SDS011;49686;51.880;5.632;2023-06-19T13:33:49;10.82;;;9.73;;
63536;SDS011;49686;51.880;5.632;2023-06-19T13:36:16;13.20;;;10.70;;
63536;SDS011;49686;51.880;5.632;2023-06-19T13:38:47;12.52;;;9.70;;
63536;SDS011;49686;51.880;5.632;2023-06-19T13:41:14;10.13;;;8.68;;
63536;SDS011;49686;51.880;5.632;2023-06-19T13:43:40;12.23;;;9.50;;
63536;SDS011;49686;51.880;5.632;2023-06-19T13:46:10;11.43;;;9.40;;
63536;SDS011;49686;51.880;5.632;2023-06-19T13:48:38;10.70;;;9.50;;
63536;SDS011;49686;51.880;5.632;2023-06-19T13:51:05;10.23;;;9.02;;
63536;SDS011;49686;51.880;5.632;2023-06-19T13:53:32;11.98;;;9.93;;
63536;SDS011;49686;51.880;5.632;2023-06-19T13:55:59;10.73;;;7.97;;
63536;SDS011;49686;51.880;5.632;2023-06-19T13:58:27;12.02;;;8.50;;
63536;SDS011;49686;51.880;5.632;2023-06-19T14:00:54;9.85;;;8.82;;
63536;SDS011;49686;51.880;5.632;2023-06-19T14:03:21;9.48;;;7.50;;
63536;SDS011;49686;51.880;5.632;2023-06-19T14:05:49;10.43;;;8.95;;
63536;SDS011;49686;51.880;5.632;2023-06-19T14:08:18;7.97;;;6.90;;
63536;SDS011;49686;51.880;5.632;2023-06-19T14:10:45;9.80;;;8.40;;
63536;SDS011;49686;51.880;5.632;2023-06-19T14:13:12;10.25;;;8.45;;
63536;SDS011;49686;51.880;5.632;2023-06-19T14:15:40;12.93;;;9.23;;
63536;SDS011;49686;51.880;5.632;2023-06-19T14:18:07;10.52;;;9.40;;
63536;SDS011;49686;51.880;5.632;2023-06-19T14:20:35;12.30;;;9.20;;
63536;SDS011;49686;51.880;5.632;2023-06-19T14:23:05;11.98;;;9.25;;
63536;SDS011;49686;51.880;5.632;2023-06-19T14:25:32;10.40;;;8.13;;
63536;SDS011;49686;51.880;5.632;2023-06-19T14:28:07;9.90;;;7.68;;
63536;SDS011;49686;51.880;5.632;2023-06-19T14:30:36;12.35;;;8.40;;
63536;SDS011;49686;51.880;5.632;2023-06-19T14:33:03;7.72;;;6.93;;
63536;SDS011;49686;51.880;5.632;2023-06-19T14:35:31;9.48;;;8.18;;
63536;SDS011;49686;51.880;5.632;2023-06-19T14:37:57;10.07;;;7.80;;
63536;SDS011;49686;51.880;5.632;2023-06-19T14:40:26;7.90;;;6.95;;
63536;SDS011;49686;51.880;5.632;2023-06-19T14:42:53;9.70;;;7.90;;
63536;SDS011;49686;51.880;5.632;2023-06-19T14:45:20;9.45;;;7.68;;
63536;SDS011;49686;51.880;5.632;2023-06-19T14:47:47;10.55;;;7.85;;
63536;SDS011;49686;51.880;5.632;2023-06-19T14:50:17;12.73;;;8.97;;
63536;SDS011;49686;51.880;5.632;2023-06-19T14:52:46;9.98;;;8.38;;
63536;SDS011;49686;51.880;5.632;2023-06-19T14:55:12;9.85;;;7.85;;